Time;durP1;ratioP1;P1;durP2;ratioP2;P2;SDS_P1;SDS_P2;PMS_P1;PMS_P2;Temp;Humidity;BMP_temperature;BMP_pressure;BME280_temperature;BME280_humidity;BME280_pressure;Samples;Min_cycle;Max_cycle;Signal;HPM_P1;HPM_P2
2022/01/09 00:00:44;;;;;;;57.95;30.72;;;;;;;0.26;90.82;96894.27;1710516;84;21095;-79
2022/01/09 00:03:11;;;;;;;53.48;29.20;;;;;;;0.26;89.98;96885.98;1710713;84;21360;-79
2022/01/09 00:05:38;;;;;;;57.13;30.90;;;;;;;0.26;89.48;96893.80;1710755;83;21053;-79
2022/01/09 00:08:05;;;;;;;66.80;34.20;;;;;;;0.24;90.73;96886.88;1697275;83;21490;-79
2022/01/09 00:10:34;;;;;;;62.73;32.33;;;;;;;0.15;91.69;96884.32;1691411;84;21048;-78
2022/01/09 00:13:01;;;;;;;66.37;34.03;;;;;;;0.17;89.87;96886.50;1690552;85;21442;-79
2022/01/09 00:15:27;;;;;;;60.23;33.28;;;;;;;0.12;91.27;96879.57;1690503;85;21057;-78
2022/01/09 00:17:54;;;;;;;61.58;35.35;;;;;;;0.13;90.39;96873.94;1695215;84;21097;-75
2022/01/09 00:20:20;;;;;;;67.95;35.28;;;;;;;0.14;89.80;96871.75;1693095;85;21414;-76
2022/01/09 00:22:50;;;;;;;59.70;32.08;;;;;;;0.12;89.74;96868.27;1696112;85;21035;-76
2022/01/09 00:25:19;;;;;;;62.62;32.73;;;;;;;0.13;89.46;96856.55;1695974;85;20997;-77
2022/01/09 00:27:46;;;;;;;60.28;31.65;;;;;;;0.11;89.22;96872.63;1692190;84;21367;-78
2022/01/09 00:30:15;;;;;;;60.30;31.35;;;;;;;0.08;90.04;96871.80;1695417;85;21393;-75
2022/01/09 00:32:42;;;;;;;61.58;32.00;;;;;;;0.10;89.53;96873.52;1697167;84;21065;-74
2022/01/09 00:35:10;;;;;;;59.18;31.07;;;;;;;0.09;89.52;96874.37;1701438;84;20985;-74
2022/01/09 00:37:37;;;;;;;62.85;31.73;;;;;;;0.06;89.64;96871.80;1698734;84;20996;-76
2022/01/09 00:40:10;;;;;;;61.02;31.95;;;;;;;0.10;89.28;96870.03;1698387;84;20994;-76
2022/01/09 00:42:37;;;;;;;56.42;30.10;;;;;;;0.11;89.30;96868.73;1696794;84;21064;-76
2022/01/09 00:45:07;;;;;;;58.52;31.17;;;;;;;0.10;89.27;96868.30;1697075;84;21730;-76
2022/01/09 00:47:34;;;;;;;62.20;32.83;;;;;;;0.15;89.32;96866.08;1697009;84;20969;-76
2022/01/09 00:50:02;;;;;;;57.00;32.03;;;;;;;0.17;89.10;96862.59;1696246;84;21016;-78
2022/01/09 00:52:28;;;;;;;60.75;33.30;;;;;;;0.23;89.42;96860.39;1695983;84;21120;-78
2022/01/09 00:54:55;;;;;;;58.58;33.35;;;;;;;0.26;89.74;96860.38;1693595;84;21008;-79
2022/01/09 00:57:22;;;;;;;61.77;32.83;;;;;;;0.31;89.67;96856.00;1693160;83;21490;-79
2022/01/09 00:59:49;;;;;;;59.45;32.03;;;;;;;0.38;89.42;96855.06;1707421;84;21132;-76
2022/01/09 01:02:16;;;;;;;56.83;31.77;;;;;;;0.42;89.45;96855.05;1695159;83;21023;-73
2022/01/09 01:04:43;;;;;;;58.35;34.08;;;;;;;0.46;89.66;96852.40;1694014;84;20992;-73
2022/01/09 01:07:09;;;;;;;59.90;33.60;;;;;;;0.51;89.72;96847.16;1675209;85;21004;-73
2022/01/09 01:09:36;;;;;;;55.85;31.90;;;;;;;0.51;89.78;96849.31;1668003;85;21099;-73
2022/01/09 01:12:03;;;;;;;60.28;33.60;;;;;;;0.55;90.20;96845.39;1668352;85;21427;-74
2022/01/09 01:14:31;;;;;;;57.38;32.03;;;;;;;0.56;90.07;96841.90;1668262;85;21028;-75
2022/01/09 01:16:58;;;;;;;63.00;35.08;;;;;;;0.54;89.90;96828.03;1701936;84;21062;-75
2022/01/09 01:19:25;;;;;;;58.52;33.48;;;;;;;0.51;90.08;96831.53;1710028;83;21595;-75
2022/01/09 01:21:51;;;;;;;60.30;34.08;;;;;;;0.50;89.97;96834.56;1710981;84;21046;-75
2022/01/09 01:24:20;;;;;;;61.33;33.98;;;;;;;0.45;90.12;96835.03;1710794;84;20974;-76
2022/01/09 01:26:47;;;;;;;65.90;33.83;;;;;;;0.41;89.76;96828.57;1710500;83;21055;-77
2022/01/09 01:29:13;;;;;;;60.20;34.43;;;;;;;0.37;90.23;96830.31;1684005;84;21015;-77
2022/01/09 01:31:40;;;;;;;60.95;33.38;;;;;;;0.33;89.42;96834.69;1690461;85;21061;-77
2022/01/09 01:34:06;;;;;;;60.17;32.20;;;;;;;0.30;89.67;96829.95;1690653;85;21052;-77
2022/01/09 01:36:33;;;;;;;63.65;34.70;;;;;;;0.30;89.66;96828.22;1690400;85;21434;-77
2022/01/09 01:39:00;;;;;;;64.97;34.33;;;;;;;0.31;89.88;96826.45;1693087;84;20990;-77
2022/01/09 01:41:26;;;;;;;58.87;32.63;;;;;;;0.29;89.53;96822.55;1710389;84;21081;-77
2022/01/09 01:43:53;;;;;;;68.02;35.35;;;;;;;0.29;89.84;96825.62;1711748;84;21068;-77
2022/01/09 01:46:19;;;;;;;64.62;33.45;;;;;;;0.31;89.77;96819.94;1716435;84;21420;-77
2022/01/09 01:48:45;;;;;;;65.15;33.42;;;;;;;0.30;89.82;96818.22;1716471;84;20998;-77
2022/01/09 01:51:12;;;;;;;61.77;33.15;;;;;;;0.30;89.90;96811.28;1711060;84;21000;-77
2022/01/09 01:53:39;;;;;;;63.38;31.87;;;;;;;0.30;89.19;96809.98;1693774;85;21417;-77
2022/01/09 01:56:07;;;;;;;60.88;32.93;;;;;;;0.26;90.17;96806.50;1693382;85;21059;-77
2022/01/09 01:58:35;;;;;;;60.60;33.67;;;;;;;0.28;89.63;96803.89;1693545;85;20976;-77
2022/01/09 02:01:02;;;;;;;65.85;33.48;;;;;;;0.32;89.64;96803.42;1712654;84;21029;-77
2022/01/09 02:03:29;;;;;;;57.73;32.48;;;;;;;0.32;89.51;96806.02;1716328;84;21085;-77
2022/01/09 02:05:56;;;;;;;63.58;33.53;;;;;;;0.33;89.34;96794.75;1716264;84;21438;-77
2022/01/09 02:08:22;;;;;;;64.80;33.65;;;;;;;0.36;89.80;96798.61;1691793;84;21009;-77
2022/01/09 02:10:49;;;;;;;63.17;33.85;;;;;;;0.33;90.05;96797.36;1708514;84;20990;-74
2022/01/09 02:13:17;;;;;;;59.65;31.82;;;;;;;0.35;89.85;96787.77;1716315;84;21026;-75
2022/01/09 02:15:46;;;;;;;59.77;32.95;;;;;;;0.39;89.67;96785.57;1716150;84;21018;-75
2022/01/09 02:18:18;;;;;;;63.87;33.30;;;;;;;0.40;89.74;96778.17;1708407;84;21015;-75
2022/01/09 02:20:46;;;;;;;58.08;32.40;;;;;;;0.40;89.46;96780.77;1693681;85;21007;-76
2022/01/09 02:23:15;;;;;;;59.80;31.97;;;;;;;0.41;89.14;96777.28;1693747;85;21417;-76
2022/01/09 02:25:44;;;;;;;55.48;31.37;;;;;;;0.38;89.17;96774.27;1693622;85;20976;-76
2022/01/09 02:28:14;;;;;;;55.12;30.32;;;;;;;0.39;88.89;96772.53;1700552;84;21036;-76
2022/01/09 02:30:42;;;;;;;50.30;28.35;;;;;;;0.36;88.67;96767.34;1716341;84;20979;-76
2022/01/09 02:33:16;;;;;;;52.20;28.45;;;;;;;0.31;88.65;96763.91;1714194;84;21026;-76
2022/01/09 02:35:43;;;;;;;51.95;28.35;;;;;;;0.28;88.96;96758.28;1665879;86;21036;-76
2022/01/09 02:38:09;;;;;;;52.15;27.52;;;;;;;0.32;88.93;96759.99;1665786;85;21080;-76
2022/01/09 02:40:36;;;;;;;51.65;28.00;;;;;;;0.31;89.19;96750.45;1711679;84;21070;-76
2022/01/09 02:43:03;;;;;;;50.58;27.73;;;;;;;0.33;89.23;96746.08;1716455;84;21018;-76
2022/01/09 02:45:30;;;;;;;49.15;26.77;;;;;;;0.36;89.22;96739.97;1716263;84;21073;-76
2022/01/09 02:47:59;;;;;;;47.33;24.65;;;;;;;0.41;89.30;96741.25;1716310;84;21510;-76
2022/01/09 02:52:59;;;;;;;48.35;26.82;;;;;;;0.49;89.57;96740.29;1699403;84;21073;-76
2022/01/09 02:55:28;;;;;;;45.90;25.62;;;;;;;0.51;89.50;96735.06;1716239;84;21069;-76
2022/01/09 02:57:59;;;;;;;46.10;26.27;;;;;;;0.52;89.60;96731.58;1716314;84;21010;-76
2022/01/09 03:00:30;;;;;;;47.17;25.72;;;;;;;0.53;89.75;96735.90;1715315;84;21014;-76
2022/01/09 03:02:58;;;;;;;46.65;26.17;;;;;;;0.55;89.93;96728.07;1695874;84;21458;-76
2022/01/09 03:05:27;;;;;;;47.45;25.82;;;;;;;0.60;90.04;96733.67;1695836;85;21052;-76
2022/01/09 03:07:54;;;;;;;46.35;26.20;;;;;;;0.65;89.92;96726.66;1699394;84;21023;-76
2022/01/09 03:10:22;;;;;;;44.50;26.23;;;;;;;0.64;89.67;96739.71;1701523;84;21498;-76
2022/01/09 03:12:51;;;;;;;52.60;28.23;;;;;;;0.61;89.46;96735.39;1700525;84;20964;-76
2022/01/09 03:15:19;;;;;;;49.85;26.40;;;;;;;0.59;89.15;96728.47;1695723;85;20969;-76
2022/01/09 03:17:46;;;;;;;52.33;29.72;;;;;;;0.54;89.30;96726.34;1695820;85;21048;-76
2022/01/09 03:20:20;;;;;;;50.83;27.20;;;;;;;0.53;89.20;96729.38;1695988;84;20988;-76
2022/01/09 03:22:47;;;;;;;54.00;27.45;;;;;;;0.52;89.46;96726.36;1695937;85;21024;-76
2022/01/09 03:25:15;;;;;;;52.48;28.80;;;;;;;0.52;89.26;96720.72;1697513;84;21398;-76
2022/01/09 03:27:45;;;;;;;51.98;28.55;;;;;;;0.52;89.15;96723.33;1695730;85;21501;-76
2022/01/09 03:30:12;;;;;;;49.03;25.43;;;;;;;0.50;89.52;96725.52;1695716;84;20984;-76
2022/01/09 03:32:40;;;;;;;44.98;25.43;;;;;;;0.44;88.84;96729.05;1695933;85;21008;-76
2022/01/09 03:35:12;;;;;;;43.20;25.40;;;;;;;0.40;88.89;96724.73;1695947;84;20989;-76
2022/01/09 03:37:40;;;;;;;45.90;25.12;;;;;;;0.36;88.79;96724.33;1691281;84;21427;-76
2022/01/09 03:40:11;;;;;;;46.02;25.60;;;;;;;0.32;88.95;96710.91;1695983;84;21017;-76
2022/01/09 03:42:37;;;;;;;43.45;24.23;;;;;;;0.32;89.18;96709.59;1695879;85;20988;-75
2022/01/09 03:45:07;;;;;;;38.08;21.37;;;;;;;0.33;89.48;96714.80;1693916;84;21450;-75
2022/01/09 03:47:39;;;;;;;31.95;18.42;;;;;;;0.35;89.27;96710.45;1690801;84;20985;-75
2022/01/09 03:50:07;;;;;;;33.65;18.82;;;;;;;0.34;88.97;96703.95;1666697;86;21060;-76
2022/01/09 03:52:37;;;;;;;34.67;20.35;;;;;;;0.34;89.43;96706.09;1668340;86;21414;-76
2022/01/09 03:55:03;;;;;;;39.70;21.75;;;;;;;0.35;89.24;96704.37;1668352;86;21036;-76
2022/01/09 03:57:29;;;;;;;37.10;21.05;;;;;;;0.36;89.46;96707.39;1668437;86;21024;-76
2022/01/09 03:59:56;;;;;;;37.33;20.40;;;;;;;0.37;89.66;96711.30;1670508;84;21489;-76
2022/01/09 04:02:22;;;;;;;40.10;21.20;;;;;;;0.41;89.38;96709.97;1690951;85;21033;-76
2022/01/09 04:04:49;;;;;;;38.35;20.57;;;;;;;0.44;89.33;96704.70;1690615;85;21039;-76
2022/01/09 04:07:16;;;;;;;36.28;20.40;;;;;;;0.47;89.15;96704.69;1692615;85;20980;-75
2022/01/09 04:09:45;;;;;;;35.03;19.70;;;;;;;0.46;89.24;96702.51;1692833;84;21057;-75
2022/01/09 04:12:17;;;;;;;33.78;18.40;;;;;;;0.51;89.71;96697.27;1690630;85;21060;-76
2022/01/09 04:14:49;;;;;;;35.40;20.12;;;;;;;0.56;89.61;96694.59;1690783;85;21490;-76
2022/01/09 04:20:06;;;;;;;34.10;18.95;;;;;;;0.52;89.44;96698.56;1706220;84;21057;-76
2022/01/09 04:22:32;;;;;;;36.88;20.57;;;;;;;0.50;89.93;96704.21;1709941;84;21018;-76
2022/01/09 04:24:59;;;;;;;36.48;20.00;;;;;;;0.56;89.93;96697.20;1710783;84;21475;-76
2022/01/09 04:27:25;;;;;;;45.10;22.07;;;;;;;0.59;89.89;96703.27;1703558;83;21085;-76
2022/01/09 04:29:52;;;;;;;36.58;21.02;;;;;;;0.59;89.77;96695.45;1690684;85;21009;-76
2022/01/09 04:32:18;;;;;;;41.95;21.37;;;;;;;0.57;89.57;96713.27;1690689;85;20984;-76
2022/01/09 04:34:45;;;;;;;38.65;20.48;;;;;;;0.56;89.52;96711.54;1691216;84;20997;-76
2022/01/09 04:37:11;;;;;;;35.20;19.20;;;;;;;0.56;89.12;96706.33;1696170;84;21025;-76
2022/01/09 04:39:38;;;;;;;31.30;17.07;;;;;;;0.52;88.98;96715.93;1711066;84;21030;-75
2022/01/09 04:42:05;;;;;;;33.35;18.57;;;;;;;0.45;88.80;96715.13;1710909;84;21391;-76
2022/01/09 04:44:32;;;;;;;31.02;17.87;;;;;;;0.39;89.08;96715.19;1710827;83;21128;-76
2022/01/09 04:47:03;;;;;;;33.98;17.40;;;;;;;0.33;89.12;96720.47;1710934;84;21090;-75
2022/01/09 04:49:34;;;;;;;33.18;18.35;;;;;;;0.30;88.99;96717.89;1705357;84;21032;-76
2022/01/09 04:51:56;;;;;;;34.03;19.80;;;;;;;0.28;88.72;96717.89;1689534;85;21047;-76
2022/01/09 04:54:23;;;;;;;35.40;19.80;;;;;;;0.26;88.72;96714.45;1690513;85;20981;-76
2022/01/09 04:56:49;;;;;;;42.10;21.95;;;;;;;0.22;88.74;96710.14;1690694;85;21423;-76
2022/01/09 04:59:15;;;;;;;40.38;22.30;;;;;;;0.23;89.08;96711.44;1690735;85;21068;-76
2022/01/09 05:01:42;;;;;;;42.80;23.80;;;;;;;0.23;89.17;96711.44;1695610;84;20974;-76
2022/01/09 05:04:08;;;;;;;46.80;23.83;;;;;;;0.24;89.20;96713.58;1699302;83;21423;-76
2022/01/09 05:06:34;;;;;;;42.35;23.22;;;;;;;0.27;89.15;96712.27;1690546;85;21025;-76
2022/01/09 05:09:01;;;;;;;44.55;23.62;;;;;;;0.21;88.83;96709.72;1690908;85;21110;-76
2022/01/09 05:11:27;;;;;;;44.98;24.45;;;;;;;0.17;89.32;96714.53;1690916;84;21024;-76
2022/01/09 05:13:54;;;;;;;45.38;24.87;;;;;;;0.18;89.46;96723.64;1690992;84;21017;-76
2022/01/09 05:16:20;;;;;;;47.85;25.85;;;;;;;0.19;89.17;96720.16;1690741;85;21013;-76
2022/01/09 05:18:52;;;;;;;44.00;25.40;;;;;;;0.17;89.03;96710.63;1690762;85;20970;-76
2022/01/09 05:21:18;;;;;;;43.13;24.77;;;;;;;0.15;89.16;96709.75;1690374;85;21076;-76
2022/01/09 05:23:45;;;;;;;45.03;24.32;;;;;;;0.14;89.12;96710.21;1690709;85;21017;-76
2022/01/09 05:26:11;;;;;;;43.68;24.35;;;;;;;0.12;89.10;96707.61;1700157;84;21078;-77
2022/01/09 05:28:38;;;;;;;42.35;24.23;;;;;;;0.14;89.28;96708.91;1710835;84;21413;-76
2022/01/09 05:31:05;;;;;;;45.12;24.63;;;;;;;0.22;89.95;96716.66;1710945;83;21082;-76
2022/01/09 05:33:31;;;;;;;43.50;24.72;;;;;;;0.25;89.47;96708.82;1710783;84;21053;-76
2022/01/09 05:35:58;;;;;;;46.00;25.12;;;;;;;0.28;89.37;96717.89;1691558;84;21001;-77
2022/01/09 05:38:24;;;;;;;43.15;25.35;;;;;;;0.30;89.39;96714.85;1691244;84;21484;-77
2022/01/09 05:40:51;;;;;;;46.28;24.20;;;;;;;0.31;89.55;96710.05;1690683;85;21345;-77
2022/01/09 05:43:19;;;;;;;40.95;23.70;;;;;;;0.37;89.80;96712.59;1690574;85;21004;-77
2022/01/09 05:45:46;;;;;;;41.48;23.77;;;;;;;0.42;89.67;96709.09;1692120;84;21075;-77
2022/01/09 05:48:12;;;;;;;41.55;23.57;;;;;;;0.39;89.66;96700.44;1693517;85;21478;-77
2022/01/09 05:50:38;;;;;;;42.27;23.80;;;;;;;0.38;89.90;96698.68;1695836;84;21008;-77
2022/01/09 05:53:05;;;;;;;43.58;23.25;;;;;;;0.44;90.44;96696.46;1693534;85;21068;-77
2022/01/09 05:55:32;;;;;;;40.88;24.02;;;;;;;0.51;90.36;96694.66;1693435;85;21501;-77
2022/01/09 05:57:58;;;;;;;43.23;22.65;;;;;;;0.55;90.38;96704.61;1695619;84;21089;-76
2022/01/09 06:00:25;;;;;;;41.70;22.15;;;;;;;0.54;89.85;96696.37;1711431;84;21011;-76
2022/01/09 06:02:51;;;;;;;34.55;20.00;;;;;;;0.48;89.54;96716.41;1711208;84;21018;-77
2022/01/09 06:05:18;;;;;;;35.55;18.60;;;;;;;0.42;89.55;96709.97;1711447;84;21015;-76
2022/01/09 06:07:44;;;;;;;41.37;22.22;;;;;;;0.37;89.38;96701.30;1703935;84;21004;-77
2022/01/09 06:10:12;;;;;;;40.67;21.90;;;;;;;0.37;89.21;96705.20;1702180;84;21158;-77
2022/01/09 06:12:39;;;;;;;41.08;22.07;;;;;;;0.31;90.21;96710.05;1693511;85;21462;-77
2022/01/09 06:15:07;;;;;;;38.30;21.65;;;;;;;0.26;89.46;96708.78;1693491;85;20980;-77
2022/01/09 06:17:40;;;;;;;43.92;22.15;;;;;;;0.26;89.01;96702.72;1693373;85;21036;-78
2022/01/09 06:20:10;;;;;;;44.35;23.85;;;;;;;0.22;89.32;96711.02;1696952;84;21025;-78
2022/01/09 06:22:36;;;;;;;45.73;24.92;;;;;;;0.17;89.54;96710.16;1711327;84;21070;-78
2022/01/09 06:25:06;;;;;;;47.30;25.97;;;;;;;0.17;89.34;96694.98;1705692;84;21406;-78
2022/01/09 06:27:33;;;;;;;46.13;24.72;;;;;;;0.15;89.58;96697.60;1693475;85;21073;-78
2022/01/09 06:30:00;;;;;;;45.92;23.75;;;;;;;0.15;89.36;96711.05;1693578;85;21020;-78
2022/01/09 06:32:26;;;;;;;40.98;23.32;;;;;;;0.17;89.54;96711.92;1689158;84;21027;-78
2022/01/09 06:34:53;;;;;;;37.63;21.30;;;;;;;0.19;89.48;96712.77;1694179;83;21019;-75
2022/01/09 06:37:20;;;;;;;42.90;23.22;;;;;;;0.14;90.32;96712.81;1690232;84;21003;-75
2022/01/09 06:39:46;;;;;;;43.83;24.25;;;;;;;0.13;89.46;96714.55;1682803;85;21087;-75
2022/01/09 06:42:13;;;;;;;41.15;22.80;;;;;;;0.12;89.51;96719.77;1694353;84;20992;-75
2022/01/09 06:44:39;;;;;;;39.78;23.85;;;;;;;0.10;89.34;96718.92;1692578;84;21079;-75
2022/01/09 06:47:05;;;;;;;45.85;25.23;;;;;;;0.09;89.32;96715.44;1687761;84;21593;-75
2022/01/09 06:49:34;;;;;;;63.00;31.30;;;;;;;0.08;89.71;96726.75;1687502;85;21077;-75
2022/01/09 06:52:02;;;;;;;40.08;23.42;;;;;;;0.11;89.65;96717.61;1687466;85;20985;-75
2022/01/09 06:54:30;;;;;;;41.08;23.62;;;;;;;0.08;89.40;96715.03;1686757;85;21008;-75
2022/01/09 06:56:57;;;;;;;45.67;24.18;;;;;;;0.09;89.73;96714.59;1687157;85;21060;-75
2022/01/09 06:59:23;;;;;;;45.05;24.47;;;;;;;0.11;89.47;96716.31;1659763;86;21044;-76
2022/01/09 07:01:50;;;;;;;45.30;24.55;;;;;;;0.15;89.44;96717.57;1660011;86;21013;-76
2022/01/09 07:04:17;;;;;;;43.20;22.35;;;;;;;0.18;89.38;96715.83;1682508;85;21013;-76
2022/01/09 07:06:43;;;;;;;42.93;22.55;;;;;;;0.21;89.45;96726.20;1687676;85;21471;-75
2022/01/09 07:09:10;;;;;;;36.10;20.55;;;;;;;0.26;89.87;96719.66;1687819;85;21054;-76
2022/01/09 07:11:36;;;;;;;33.65;19.12;;;;;;;0.29;89.94;96715.70;1687935;85;20989;-76
2022/01/09 07:14:03;;;;;;;35.52;20.02;;;;;;;0.36;90.10;96712.18;1687727;85;21462;-76
2022/01/09 07:16:29;;;;;;;33.88;19.00;;;;;;;0.47;90.27;96719.91;1669841;84;21013;-76
2022/01/09 07:18:56;;;;;;;34.30;19.50;;;;;;;0.56;90.02;96726.75;1658667;86;21047;-82
2022/01/09 07:21:23;;;;;;;33.48;20.10;;;;;;;0.57;90.01;96728.48;1658577;86;21068;-77
2022/01/09 07:23:49;;;;;;;33.85;19.57;;;;;;;0.59;90.24;96726.73;1658669;86;21442;-75
2022/01/09 07:26:16;;;;;;;35.78;19.55;;;;;;;0.68;90.12;96718.38;1668968;85;20996;-75
2022/01/09 07:28:43;;;;;;;31.35;18.23;;;;;;;0.74;90.13;96723.08;1687500;85;21009;-76
2022/01/09 07:31:09;;;;;;;32.75;20.00;;;;;;;0.78;89.56;96721.30;1687725;85;20997;-75
2022/01/09 07:33:35;;;;;;;33.63;19.15;;;;;;;0.75;89.15;96720.89;1687717;85;21025;-75
2022/01/09 07:36:02;;;;;;;33.63;18.95;;;;;;;0.74;89.50;96724.81;1687547;85;21041;-76
2022/01/09 07:38:29;;;;;;;58.25;32.00;;;;;;;0.74;89.22;96727.00;1686797;85;20988;-77
2022/01/09 07:40:55;;;;;;;68.02;31.93;;;;;;;0.72;88.63;96724.86;1686686;85;20984;-77
2022/01/09 07:43:22;;;;;;;35.03;20.90;;;;;;;0.65;88.66;96724.06;1687508;85;21044;-78
2022/01/09 07:45:48;;;;;;;35.45;20.10;;;;;;;0.62;88.66;96711.04;1692313;84;20985;-75
2022/01/09 07:48:15;;;;;;;32.20;20.12;;;;;;;0.62;88.64;96727.14;1708390;84;21466;-77
2022/01/09 07:50:42;;;;;;;34.70;20.10;;;;;;;0.60;88.37;96714.55;1707117;84;21018;-78
2022/01/09 07:53:08;;;;;;;36.95;20.25;;;;;;;0.56;88.46;96713.72;1697262;84;20990;-77
2022/01/09 07:55:35;;;;;;;38.42;20.25;;;;;;;0.55;88.48;96721.13;1695150;84;21364;-76
2022/01/09 07:58:02;;;;;;;35.92;19.57;;;;;;;0.61;88.72;96728.00;1697199;84;21478;-78
2022/01/09 08:00:28;;;;;;;33.95;19.02;;;;;;;0.60;88.49;96727.16;1696214;84;20985;-80
2022/01/09 08:02:55;;;;;;;30.95;18.48;;;;;;;0.58;88.27;96728.89;1694907;84;21012;-77
2022/01/09 08:05:21;;;;;;;31.57;18.02;;;;;;;0.57;88.32;96726.30;1694757;85;21000;-76
2022/01/09 08:07:50;;;;;;;26.37;16.15;;;;;;;0.56;88.16;96721.97;1697396;84;20990;-77
2022/01/09 08:10:16;;;;;;;28.75;15.28;;;;;;;0.52;88.03;96724.63;1691763;83;21040;-79
2022/01/09 08:12:43;;;;;;;23.12;14.53;;;;;;;0.52;87.88;96725.94;1696034;85;21056;-78
2022/01/09 08:15:11;;;;;;;24.75;14.15;;;;;;;0.51;87.82;96729.39;1699674;84;20987;-77
2022/01/09 08:17:37;;;;;;;20.95;13.03;;;;;;;0.55;88.16;96731.55;1711040;84;21460;-77
2022/01/09 08:20:06;;;;;;;23.40;12.88;;;;;;;0.56;87.76;96728.06;1710955;83;21022;-76
2022/01/09 08:22:33;;;;;;;23.98;13.75;;;;;;;0.58;87.70;96732.80;1711057;84;21009;-77
2022/01/09 08:24:59;;;;;;;23.22;13.43;;;;;;;0.56;87.37;96719.36;1710841;83;21452;-78
2022/01/09 08:27:26;;;;;;;24.07;14.73;;;;;;;0.57;87.64;96714.56;1699403;83;21024;-77
2022/01/09 08:29:52;;;;;;;23.57;13.62;;;;;;;0.61;87.68;96707.14;1694969;84;21004;-78
2022/01/09 08:32:19;;;;;;;24.90;15.38;;;;;;;0.62;87.90;96711.50;1698912;84;21031;-77
2022/01/09 08:34:46;;;;;;;26.02;15.38;;;;;;;0.62;87.38;96712.34;1696625;84;21060;-78
2022/01/09 08:37:12;;;;;;;28.67;16.27;;;;;;;0.63;87.30;96703.63;1694907;84;21028;-76
2022/01/09 08:39:44;;;;;;;30.50;17.42;;;;;;;0.58;87.10;96710.64;1695402;84;21055;-80
2022/01/09 08:42:11;;;;;;;31.02;17.95;;;;;;;0.50;87.38;96718.55;1690677;85;21346;-82
2022/01/09 08:44:38;;;;;;;69.03;32.50;;;;;;;0.40;88.29;96724.73;1690673;85;21446;-81
2022/01/09 08:47:05;;;;;;;28.45;17.20;;;;;;;0.47;87.94;96717.30;1690647;85;21021;-77
2022/01/09 08:49:32;;;;;;;32.05;18.57;;;;;;;0.56;87.97;96709.81;1690661;84;21079;-81
2022/01/09 08:51:59;;;;;;;32.35;19.00;;;;;;;0.61;87.94;96705.41;1695375;84;21031;-82
2022/01/09 08:54:25;;;;;;;32.98;18.77;;;;;;;0.71;88.09;96697.03;1694340;85;21075;-82
2022/01/09 08:56:52;;;;;;;30.25;18.12;;;;;;;0.80;87.83;96699.99;1695167;85;21071;-82
2022/01/09 08:59:19;;;;;;;28.77;17.32;;;;;;;0.87;87.65;96702.09;1695523;85;21433;-82
2022/01/09 09:01:47;;;;;;;28.73;16.23;;;;;;;0.86;87.23;96709.05;1695208;84;21070;-81
2022/01/09 09:04:15;;;;;;;28.80;17.40;;;;;;;0.88;86.51;96706.42;1689454;85;21120;-82
2022/01/09 09:06:42;;;;;;;24.20;14.55;;;;;;;0.87;86.89;96706.01;1690062;85;21262;-82
2022/01/09 09:09:11;;;;;;;26.35;15.68;;;;;;;0.88;87.06;96695.98;1689505;83;21265;-82
2022/01/09 09:11:40;;;;;;;24.52;14.93;;;;;;;0.94;86.98;96698.52;1691791;85;21513;-83
2022/01/09 09:14:06;;;;;;;25.88;15.60;;;;;;;0.98;86.87;96701.94;1697021;84;21382;-82
2022/01/09 09:16:33;;;;;;;24.85;14.95;;;;;;;1.00;86.87;96706.72;1709682;84;21122;-82
2022/01/09 09:18:59;;;;;;;23.85;15.10;;;;;;;1.03;86.71;96706.66;1708902;84;21053;-82
2022/01/09 09:21:26;;;;;;;22.35;13.98;;;;;;;1.01;86.49;96705.40;1708635;84;21511;-81
2022/01/09 09:23:52;;;;;;;24.12;15.15;;;;;;;1.00;86.17;96702.80;1706883;83;21049;-82
2022/01/09 09:26:21;;;;;;;26.12;15.20;;;;;;;0.97;85.93;96705.44;1689632;85;21011;-83
2022/01/09 09:28:48;;;;;;;23.45;14.47;;;;;;;0.91;85.91;96708.55;1690746;85;20996;-82
2022/01/09 09:31:14;;;;;;;23.75;13.85;;;;;;;0.87;85.77;96713.83;1690567;85;21012;-82
2022/01/09 09:33:41;;;;;;;24.15;14.40;;;;;;;0.90;86.14;96710.73;1690530;85;21052;-82
2022/01/09 09:36:07;;;;;;;21.82;13.45;;;;;;;0.92;85.98;96714.64;1696420;84;21106;-82
2022/01/09 09:38:34;;;;;;;23.47;14.78;;;;;;;0.92;85.84;96709.42;1711041;84;21084;-82
2022/01/09 09:41:00;;;;;;;23.20;14.13;;;;;;;0.94;86.21;96703.73;1710791;84;21030;-83
2022/01/09 09:43:27;;;;;;;22.42;13.95;;;;;;;0.91;86.23;96708.55;1710925;84;20998;-82
2022/01/09 09:45:54;;;;;;;24.32;15.28;;;;;;;0.87;85.21;96696.42;1684708;83;21055;-81
2022/01/09 09:48:21;;;;;;;24.72;14.07;;;;;;;0.78;85.41;96706.52;1706526;84;20993;-82
2022/01/09 09:50:47;;;;;;;24.12;14.40;;;;;;;0.75;85.30;96702.64;1667862;85;21473;-82
2022/01/09 09:53:14;;;;;;;20.50;12.65;;;;;;;0.76;85.59;96708.73;1693630;85;21013;-82
2022/01/09 09:55:41;;;;;;;19.12;11.33;;;;;;;0.74;85.15;96707.86;1693367;85;21060;-82
2022/01/09 09:58:07;;;;;;;21.85;13.03;;;;;;;0.76;85.45;96712.21;1693531;85;21000;-82
2022/01/09 10:00:35;;;;;;;21.10;12.05;;;;;;;0.79;85.79;96707.41;1699731;84;21003;-82
2022/01/09 10:03:03;;;;;;;17.82;11.38;;;;;;;0.79;85.77;96702.19;1701351;84;21107;-82
2022/01/09 10:05:37;;;;;;;19.70;11.60;;;;;;;0.84;86.01;96704.30;1693562;85;21021;-82
2022/01/09 10:08:12;;;;;;;26.10;14.55;;;;;;;0.92;86.49;96701.14;1693700;85;21023;-82
2022/01/09 10:10:40;;;;;;;22.73;13.48;;;;;;;1.00;86.62;96687.16;1693082;85;21057;-82
2022/01/09 10:13:17;;;;;;;23.05;14.20;;;;;;;0.96;86.31;96683.73;1702758;84;21034;-82
2022/01/09 10:15:54;;;;;;;19.77;12.28;;;;;;;0.90;86.18;96681.17;1711344;84;21507;-82
2022/01/09 10:18:44;;;;;;;20.27;12.28;;;;;;;0.94;86.27;96679.38;1711275;84;21515;-82
2022/01/09 10:21:15;;;;;;;17.23;10.68;;;;;;;0.96;85.47;96676.33;1711405;84;21022;-81
2022/01/09 10:24:04;;;;;;;21.07;12.43;;;;;;;0.75;84.26;96672.64;1710960;84;21057;-81
2022/01/09 10:26:35;;;;;;;19.27;11.28;;;;;;;0.72;85.72;96666.19;1699238;84;21014;-82
2022/01/09 10:29:04;;;;;;;20.02;12.05;;;;;;;0.61;85.36;96668.91;1711340;84;21065;-81
2022/01/09 10:31:30;;;;;;;21.40;13.03;;;;;;;0.52;86.31;96670.31;1711151;84;21090;-82
2022/01/09 10:34:07;;;;;;;21.73;12.40;;;;;;;0.53;86.83;96666.81;1711305;84;21050;-82
2022/01/09 10:36:49;;;;;;;22.62;12.28;;;;;;;0.54;86.18;96667.23;1676664;84;20980;-82
2022/01/09 10:39:21;;;;;;;20.85;12.05;;;;;;;0.50;87.57;96672.92;1693528;85;21009;-81
2022/01/09 10:41:55;;;;;;;21.95;11.48;;;;;;;0.50;86.75;96671.63;1692150;85;20996;-81
2022/01/09 10:44:31;;;;;;;19.30;12.27;;;;;;;0.55;86.55;96676.80;1698424;84;21020;-81
2022/01/09 10:47:02;;;;;;;17.60;10.60;;;;;;;0.56;86.02;96675.91;1708393;84;20991;-81
2022/01/09 10:49:51;;;;;;;18.60;10.85;;;;;;;0.54;85.88;96674.20;1711429;84;21002;-81
2022/01/09 10:52:25;;;;;;;18.67;10.10;;;;;;;0.56;86.23;96673.31;1711397;84;20991;-82
2022/01/09 10:54:56;;;;;;;16.57;10.35;;;;;;;0.50;86.28;96676.84;1700079;84;21027;-81
2022/01/09 10:57:27;;;;;;;24.07;11.43;;;;;;;0.43;86.17;96669.10;1691827;85;21044;-80
2022/01/09 11:00:15;;;;;;;19.75;10.85;;;;;;;0.48;85.97;96663.40;1693494;84;20993;-80
2022/01/09 11:02:45;;;;;;;19.52;11.55;;;;;;;0.47;86.05;96666.89;1693644;85;21008;-80
2022/01/09 11:05:12;;;;;;;15.98;9.73;;;;;;;0.47;86.06;96664.28;1693395;85;21015;-80
2022/01/09 11:07:40;;;;;;;20.57;11.35;;;;;;;0.41;85.84;96659.98;1708180;84;21003;-80
2022/01/09 11:10:08;;;;;;;20.60;11.05;;;;;;;0.44;86.07;96661.27;1711221;84;21049;-80
2022/01/09 11:12:46;;;;;;;17.42;10.68;;;;;;;0.44;85.75;96661.70;1687101;84;21420;-80
2022/01/09 11:15:09;;;;;;;18.95;11.20;;;;;;;0.46;85.52;96658.19;1709952;84;20975;-80
2022/01/09 11:17:35;;;;;;;19.80;11.35;;;;;;;0.49;85.89;96660.78;1711389;84;21030;-80
2022/01/09 11:20:03;;;;;;;16.90;9.60;;;;;;;0.58;85.73;96657.66;1695112;84;21496;-81
2022/01/09 11:22:29;;;;;;;16.75;10.32;;;;;;;0.59;85.36;96651.55;1693591;85;21382;-80
2022/01/09 11:25:26;;;;;;;16.02;9.58;;;;;;;0.58;85.45;96651.14;1693461;85;21126;-81
2022/01/09 11:28:16;;;;;;;17.95;10.23;;;;;;;0.66;85.51;96661.02;1693661;84;20980;-80
2022/01/09 11:31:02;;;;;;;16.48;9.85;;;;;;;0.68;85.10;96648.84;1698459;84;21436;-81
2022/01/09 11:33:49;;;;;;;16.25;9.58;;;;;;;0.74;85.15;96654.41;1711301;84;21002;-82